createdAt,value
2017-08-24T00:00:38.086Z,15.50
2017-08-24T00:03:28.975Z,15.40
2017-08-24T00:26:38.607Z,15.20
2017-08-24T00:49:09.345Z,15.10
2017-08-24T01:00:23.732Z,15.00
2017-08-24T01:47:29.486Z,14.60
2017-08-24T02:10:13.460Z,14.30
2017-08-24T02:24:48.966Z,14.20
2017-08-24T02:39:22.465Z,14.10
2017-08-24T02:41:59.136Z,14.10
2017-08-24T02:47:39.350Z,14.10
2017-08-24T03:53:38.335Z,14.00
2017-08-24T03:56:05.787Z,14.00
2017-08-24T03:58:33.243Z,14.00
2017-08-24T04:01:00.687Z,14.00
2017-08-24T04:03:28.128Z,13.90
2017-08-24T04:05:55.575Z,14.00
2017-08-24T04:08:23.031Z,14.00
2017-08-24T04:10:50.466Z,14.00
2017-08-24T04:13:17.919Z,14.00
2017-08-24T04:15:45.359Z,14.00
2017-08-24T04:18:12.808Z,14.00
2017-08-24T04:20:40.253Z,14.00
2017-08-24T04:23:07.699Z,14.00
2017-08-24T04:25:35.143Z,14.00
2017-08-24T04:28:02.588Z,14.10
2017-08-24T04:30:30.031Z,14.10
2017-08-24T04:32:57.475Z,14.10
2017-08-24T04:35:24.917Z,14.20
2017-08-24T04:37:52.367Z,14.30
2017-08-24T04:40:19.808Z,14.30
2017-08-24T04:42:47.259Z,14.40
2017-08-24T04:45:14.705Z,14.50
2017-08-24T04:47:42.155Z,14.60
2017-08-24T04:50:09.600Z,14.70
2017-08-24T05:37:54.215Z,17.10
2017-08-24T05:40:21.659Z,17.40
2017-08-24T05:42:49.108Z,17.60
2017-08-24T05:45:16.559Z,17.70
2017-08-24T05:47:44.059Z,17.80
2017-08-24T05:50:11.512Z,17.90
2017-08-24T05:52:38.950Z,18.00
2017-08-24T05:55:06.396Z,18.10
2017-08-24T05:57:33.826Z,18.20
2017-08-24T06:00:01.276Z,18.40
2017-08-24T06:02:28.711Z,18.70
2017-08-24T06:04:56.160Z,18.90
2017-08-24T06:07:23.627Z,19.10
2017-08-24T06:09:51.068Z,19.30
2017-08-24T06:12:18.502Z,19.30
2017-08-24T06:14:45.939Z,19.40
2017-08-24T06:17:13.387Z,19.60
2017-08-24T06:19:40.826Z,19.70
2017-08-24T06:22:08.267Z,20.20
2017-08-24T06:24:35.719Z,20.70
2017-08-24T06:27:03.143Z,21.60
2017-08-24T06:29:30.586Z,22.80
2017-08-24T06:31:58.025Z,23.80
2017-08-24T06:34:25.564Z,24.70
2017-08-24T06:36:52.996Z,25.20
2017-08-24T06:39:20.439Z,25.50
2017-08-24T06:41:47.908Z,25.80
2017-08-24T06:44:15.340Z,25.90
2017-08-24T06:46:42.824Z,26.20
2017-08-24T06:49:10.276Z,26.10
2017-08-24T06:51:37.715Z,26.40
2017-08-24T06:54:05.157Z,26.30
2017-08-24T06:56:32.599Z,26.50
2017-08-24T06:59:00.031Z,26.70
2017-08-24T07:01:27.477Z,26.60
2017-08-24T07:03:54.908Z,26.80
2017-08-24T07:06:22.347Z,26.80
2017-08-24T07:08:49.795Z,26.70
2017-08-24T07:11:17.237Z,26.90
2017-08-24T07:13:44.667Z,27.10
2017-08-24T07:16:12.110Z,27.40
2017-08-24T07:18:39.535Z,27.30
2017-08-24T07:21:06.984Z,27.20
2017-08-24T07:23:34.421Z,27.20
2017-08-24T07:26:01.859Z,27.30
2017-08-24T07:28:29.286Z,27.50
2017-08-24T07:30:56.731Z,27.80
2017-08-24T07:33:24.159Z,28.10
2017-08-24T07:35:51.595Z,28.20
2017-08-24T07:38:19.032Z,28.30
2017-08-24T07:40:46.468Z,28.60
2017-08-24T07:43:13.927Z,28.70
2017-08-24T07:45:41.365Z,28.60
2017-08-24T07:48:08.808Z,28.70
2017-08-24T07:50:36.240Z,28.80
2017-08-24T07:53:03.681Z,28.90
2017-08-24T07:55:31.115Z,29.00
2017-08-24T07:57:58.554Z,29.10
2017-08-24T08:00:26.010Z,29.00
2017-08-24T08:02:53.445Z,28.80
2017-08-24T08:05:20.878Z,28.90
2017-08-24T08:07:48.316Z,29.30
2017-08-24T08:10:15.751Z,29.60
2017-08-24T08:12:43.185Z,30.20
2017-08-24T08:15:10.617Z,30.30
2017-08-24T08:17:38.051Z,30.20
2017-08-24T08:20:05.485Z,29.90
2017-08-24T08:22:32.925Z,29.80
2017-08-24T08:25:00.358Z,29.70
2017-08-24T08:27:27.792Z,29.80
2017-08-24T08:29:55.218Z,29.50
2017-08-24T08:32:22.675Z,29.40
2017-08-24T08:34:50.139Z,28.90
2017-08-24T08:37:17.606Z,28.60
2017-08-24T08:39:45.050Z,28.10
2017-08-24T08:42:12.505Z,27.90
2017-08-24T08:44:39.948Z,27.50
2017-08-24T08:47:07.385Z,27.40
2017-08-24T08:49:34.882Z,26.80
2017-08-24T08:52:02.315Z,26.50
2017-08-24T08:54:29.760Z,26.30
2017-08-24T08:56:57.214Z,26.10
2017-08-24T08:59:24.705Z,26.00
2017-08-24T09:01:52.136Z,25.90
2017-08-24T09:04:19.577Z,25.90
2017-08-24T09:06:47.009Z,25.90
2017-08-24T09:09:14.461Z,26.00
2017-08-24T09:11:41.893Z,26.10
2017-08-24T09:14:09.347Z,26.20
2017-08-24T09:16:36.808Z,26.20
2017-08-24T09:19:04.249Z,26.30
2017-08-24T09:21:31.675Z,26.50
2017-08-24T09:23:59.125Z,26.50
2017-08-24T09:26:26.554Z,26.40
2017-08-24T09:28:54.051Z,26.30
2017-08-24T09:31:21.515Z,26.20
2017-08-24T09:33:48.962Z,26.10
2017-08-24T09:36:16.497Z,26.20
2017-08-24T09:38:43.956Z,26.20
2017-08-24T09:41:11.592Z,26.20
2017-08-24T09:43:39.136Z,26.30
2017-08-24T09:46:06.594Z,26.20
2017-08-24T09:48:34.044Z,26.20
2017-08-24T09:51:01.485Z,26.40
2017-08-24T09:53:28.927Z,26.60
2017-08-24T09:55:56.373Z,26.90
2017-08-24T09:58:23.816Z,27.10
2017-08-24T10:00:51.248Z,27.20
2017-08-24T10:03:18.684Z,27.30
2017-08-24T10:05:46.128Z,27.20
2017-08-24T10:08:13.575Z,27.20
2017-08-24T10:10:41.019Z,27.20
2017-08-24T10:13:08.460Z,27.10
2017-08-24T10:15:35.909Z,26.90
2017-08-24T10:18:03.348Z,26.90
2017-08-24T10:20:30.794Z,26.90
2017-08-24T10:22:58.253Z,26.80
2017-08-24T10:25:25.679Z,27.00
2017-08-24T10:27:53.127Z,27.20
2017-08-24T10:30:20.633Z,27.30
2017-08-24T10:32:48.009Z,27.20
2017-08-24T10:35:15.460Z,27.40
2017-08-24T10:37:42.892Z,27.50
2017-08-24T10:40:10.332Z,27.70
2017-08-24T10:42:37.775Z,27.50
2017-08-24T10:45:05.212Z,27.30
2017-08-24T10:47:32.659Z,27.20
2017-08-24T10:50:00.100Z,27.40
2017-08-24T10:52:27.568Z,27.60
2017-08-24T10:54:55.011Z,27.50
2017-08-24T10:57:22.467Z,27.40
2017-08-24T10:59:49.970Z,27.20
2017-08-24T11:02:17.396Z,27.00
2017-08-24T11:04:44.833Z,27.10
2017-08-24T11:07:12.267Z,27.50
2017-08-24T11:09:39.731Z,27.80
2017-08-24T11:12:07.172Z,27.90
2017-08-24T11:14:34.607Z,28.10
2017-08-24T11:17:02.045Z,28.30
2017-08-24T11:19:29.479Z,28.50
2017-08-24T11:21:56.924Z,28.60
2017-08-24T11:24:24.365Z,28.60
2017-08-24T11:26:51.812Z,28.70
2017-08-24T11:29:19.256Z,28.50
2017-08-24T11:31:46.696Z,28.30
2017-08-24T11:34:14.148Z,28.20
2017-08-24T11:36:41.584Z,28.10
2017-08-24T11:39:09.015Z,28.10
2017-08-24T11:41:36.467Z,28.30
2017-08-24T11:44:03.901Z,28.40
2017-08-24T11:46:31.348Z,28.60
2017-08-24T11:48:58.778Z,28.70
2017-08-24T11:51:26.207Z,28.90
2017-08-24T11:53:53.648Z,29.20
2017-08-24T11:56:21.080Z,28.90
2017-08-24T11:58:48.527Z,28.70
2017-08-24T12:01:15.963Z,28.60
2017-08-24T12:03:43.407Z,28.60
2017-08-24T12:06:10.843Z,28.50
2017-08-24T12:08:38.312Z,28.50
2017-08-24T12:11:05.747Z,28.20
2017-08-24T12:13:33.183Z,28.10
2017-08-24T12:16:00.624Z,28.00
2017-08-24T12:18:28.066Z,28.10
2017-08-24T12:20:55.496Z,28.10
2017-08-24T12:23:23.002Z,28.10
2017-08-24T12:25:50.451Z,27.70
2017-08-24T12:28:17.887Z,27.50
2017-08-24T12:30:45.316Z,27.60
2017-08-24T12:33:12.756Z,27.70
2017-08-24T12:35:40.188Z,27.70
2017-08-24T12:38:07.618Z,27.70
2017-08-24T12:40:35.779Z,27.70
2017-08-24T12:43:03.208Z,27.60
2017-08-24T12:45:30.645Z,27.60
2017-08-24T12:47:58.092Z,27.70
2017-08-24T12:50:25.538Z,27.80
2017-08-24T12:52:52.972Z,27.90
2017-08-24T12:55:20.415Z,28.00
2017-08-24T12:57:47.853Z,28.00
2017-08-24T13:00:15.295Z,28.10
2017-08-24T13:02:42.765Z,28.20
2017-08-24T13:05:10.212Z,28.40
2017-08-24T13:07:37.643Z,28.40
2017-08-24T13:10:05.090Z,28.40
2017-08-24T13:12:32.523Z,28.50
2017-08-24T13:14:59.965Z,28.50
2017-08-24T13:17:27.408Z,28.60
2017-08-24T13:19:54.846Z,28.60
2017-08-24T13:22:22.284Z,28.80
2017-08-24T13:24:49.768Z,29.00
2017-08-24T13:27:17.188Z,29.00
2017-08-24T13:29:44.624Z,29.00
2017-08-24T13:32:12.064Z,28.90
2017-08-24T13:34:39.505Z,28.80
2017-08-24T13:37:06.935Z,28.70
2017-08-24T13:39:34.393Z,28.70
2017-08-24T13:42:01.807Z,28.70
2017-08-24T13:44:29.243Z,28.80
2017-08-24T13:46:56.692Z,28.80
2017-08-24T13:49:24.131Z,28.90
2017-08-24T13:51:51.576Z,28.70
2017-08-24T13:54:19.015Z,28.60
2017-08-24T13:56:46.452Z,28.50
2017-08-24T13:59:13.887Z,28.40
2017-08-24T14:01:41.332Z,28.50
2017-08-24T14:04:08.762Z,28.50
2017-08-24T14:06:36.201Z,28.60
2017-08-24T14:09:03.637Z,28.70
2017-08-24T14:11:31.080Z,28.60
2017-08-24T14:13:58.527Z,28.60
2017-08-24T14:16:25.967Z,28.60
2017-08-24T14:18:53.392Z,28.70
2017-08-24T14:21:20.827Z,28.70
2017-08-24T14:23:48.266Z,28.80
2017-08-24T14:26:15.708Z,28.80
2017-08-24T14:28:43.136Z,28.70
2017-08-24T14:31:10.571Z,28.50
2017-08-24T14:33:38.007Z,28.60
2017-08-24T14:36:05.454Z,28.60
2017-08-24T14:38:32.889Z,28.60
2017-08-24T14:41:00.320Z,28.60
2017-08-24T14:43:27.751Z,28.50
2017-08-24T14:45:55.188Z,28.50
2017-08-24T14:48:22.627Z,28.50
2017-08-24T14:50:50.067Z,28.50
2017-08-24T14:53:17.505Z,28.50
2017-08-24T14:55:44.949Z,28.30
2017-08-24T14:58:12.390Z,28.20
2017-08-24T15:00:39.821Z,28.20
2017-08-24T15:03:07.257Z,28.30
2017-08-24T15:05:34.698Z,28.20
2017-08-24T15:08:02.138Z,28.20
2017-08-24T15:10:29.592Z,28.20
2017-08-24T15:12:57.037Z,28.20
2017-08-24T15:15:24.475Z,28.20
2017-08-24T15:17:51.920Z,28.30
2017-08-24T15:20:19.356Z,28.30
2017-08-24T15:22:46.801Z,28.20
2017-08-24T15:25:14.229Z,28.10
2017-08-24T15:27:41.671Z,28.10
2017-08-24T15:30:09.102Z,28.10
2017-08-24T15:32:36.555Z,28.00
2017-08-24T15:35:03.996Z,28.00
2017-08-24T15:37:31.439Z,27.90
2017-08-24T15:39:58.880Z,27.90
2017-08-24T15:42:26.314Z,27.80
2017-08-24T15:44:53.751Z,27.70
2017-08-24T15:47:21.195Z,27.80
2017-08-24T15:49:48.636Z,27.70
2017-08-24T15:52:16.066Z,27.70
2017-08-24T15:54:43.512Z,27.70
2017-08-24T15:57:10.951Z,27.60
2017-08-24T15:59:38.461Z,27.50
2017-08-24T16:02:05.909Z,27.50
2017-08-24T16:04:33.351Z,27.50
2017-08-24T16:07:00.797Z,27.50
2017-08-24T16:09:28.238Z,27.40
2017-08-24T16:11:55.678Z,27.40
2017-08-24T16:14:23.130Z,27.30
2017-08-24T16:16:50.571Z,27.20
2017-08-24T16:19:18.027Z,27.20
2017-08-24T16:21:45.462Z,27.20
2017-08-24T16:24:12.929Z,27.20
2017-08-24T16:26:40.373Z,27.10
2017-08-24T16:29:07.808Z,27.00
2017-08-24T16:31:35.238Z,27.00
2017-08-24T16:34:02.681Z,26.90
2017-08-24T16:36:30.127Z,26.90
2017-08-24T16:39:03.111Z,26.90
2017-08-24T16:41:30.549Z,26.80
2017-08-24T16:43:57.982Z,26.80
2017-08-24T16:46:25.420Z,26.90
2017-08-24T16:48:52.852Z,26.90
2017-08-24T16:51:20.293Z,26.80
2017-08-24T16:53:47.719Z,26.80
2017-08-24T16:56:15.167Z,26.60
2017-08-24T16:58:42.604Z,26.60
2017-08-24T17:01:10.043Z,26.50
2017-08-24T17:03:37.489Z,26.40
2017-08-24T17:06:04.932Z,26.30
2017-08-24T17:08:32.364Z,26.20
2017-08-24T17:10:59.809Z,26.10
2017-08-24T17:13:27.235Z,26.00
2017-08-24T17:15:54.683Z,25.90
2017-08-24T17:18:22.118Z,25.80
2017-08-24T17:20:49.573Z,25.70
2017-08-24T17:23:17.011Z,25.60
2017-08-24T17:25:44.448Z,25.50
2017-08-24T17:28:11.875Z,25.40
2017-08-24T17:30:39.319Z,25.40
2017-08-24T17:33:06.795Z,25.20
2017-08-24T17:35:34.230Z,25.10
2017-08-24T17:38:01.672Z,25.10
2017-08-24T17:40:29.124Z,25.10
2017-08-24T17:42:56.560Z,25.10
2017-08-24T17:45:24.003Z,25.00
2017-08-24T17:47:51.454Z,25.00
2017-08-24T17:50:18.886Z,24.90
2017-08-24T17:52:46.336Z,24.90
2017-08-24T17:55:13.775Z,24.80
2017-08-24T17:57:41.221Z,24.60
2017-08-24T18:00:08.655Z,24.60
2017-08-24T18:02:36.101Z,24.60
2017-08-24T18:05:03.540Z,24.50
2017-08-24T18:07:30.991Z,24.40
2017-08-24T18:09:58.435Z,24.40
2017-08-24T18:12:25.883Z,24.40
2017-08-24T18:14:53.332Z,24.40
2017-08-24T18:17:20.779Z,24.30
2017-08-24T18:19:48.215Z,24.20
2017-08-24T18:22:15.671Z,24.20
2017-08-24T18:24:43.118Z,24.20
2017-08-24T18:27:10.571Z,24.20
2017-08-24T18:29:38.012Z,24.20
2017-08-24T18:32:05.459Z,24.10
2017-08-24T18:34:32.896Z,24.10
2017-08-24T18:37:00.332Z,24.10
2017-08-24T18:39:27.822Z,24.10
2017-08-24T18:41:55.315Z,24.00
2017-08-24T18:44:22.811Z,23.70
2017-08-24T18:46:50.279Z,23.50
2017-08-24T18:49:17.811Z,23.20
2017-08-24T18:51:45.279Z,23.00
2017-08-24T18:54:12.868Z,22.90
2017-08-24T18:56:40.315Z,22.70
2017-08-24T18:59:07.886Z,22.50
2017-08-24T19:01:35.339Z,22.40
2017-08-24T19:04:02.896Z,22.20
2017-08-24T19:06:30.337Z,22.00
2017-08-24T19:08:57.914Z,21.70
2017-08-24T19:11:26.397Z,21.40
2017-08-24T19:13:54.033Z,21.10
2017-08-24T19:16:21.560Z,20.80
2017-08-24T19:18:49.086Z,20.40
2017-08-24T19:21:16.511Z,20.20
2017-08-24T19:23:43.943Z,20.10
2017-08-24T19:26:11.384Z,20.00
2017-08-24T19:28:38.825Z,19.80
2017-08-24T19:31:06.266Z,19.70
2017-08-24T19:33:33.709Z,19.50
2017-08-24T19:36:01.147Z,19.40
2017-08-24T19:38:30.229Z,19.20
2017-08-24T19:40:58.156Z,18.90
2017-08-24T19:43:49.364Z,18.60
2017-08-24T19:46:20.084Z,18.40
2017-08-24T19:49:04.261Z,18.40
2017-08-24T20:00:23.919Z,18.10
2017-08-24T20:03:02.427Z,18.10
2017-08-24T20:11:33.426Z,18.10
2017-08-24T20:14:02.654Z,18.10
2017-08-24T20:27:54.310Z,18.00
2017-08-24T20:30:27.388Z,18.00
2017-08-24T20:32:57.958Z,18.00
2017-08-24T20:35:28.080Z,18.00
2017-08-24T20:37:56.684Z,18.00
2017-08-24T20:40:34.971Z,18.00
2017-08-24T20:43:17.583Z,17.90
2017-08-24T20:45:46.950Z,17.80
2017-08-24T20:48:16.981Z,17.80
2017-08-24T20:53:19.818Z,17.80
2017-08-24T20:55:50.296Z,17.80
2017-08-24T20:58:18.843Z,17.80
2017-08-24T21:27:47.608Z,17.50
2017-08-24T21:33:16.587Z,17.50
2017-08-24T22:56:31.678Z,16.20
